< < Back
Terminal Aerodrome Forecast


Current Version              Previous Versions:   1  2  3  4  5  6  7  8  9  

Terminal Aerodrome Forecast

515
FTUS42 KCHS 311300 AAA
TAFSAV
TAF AMD
KSAV 311306Z 3113/0112 VRB05KT P6SM VCSH SCT025 BKN100
     FM311700 10011KT P6SM VCSH SCT035 BKN050
     FM010000 09005KT P6SM SCT025=

Latest METAR

259
SAUS80 KWBC 311700 CCA
MTRSAV
METAR KSAV 311653Z 13007KT 10SM SCT036 SCT050TCU BKN090 BKN150 OVC200
32/22 A3000 RMK AO2 SLP156 TCU S-W-N AND OHD T03170217


USA.gov is the U.S. government's official web portal to all federal, state and local government web resources and services.